Time;durP1;ratioP1;P1;durP2;ratioP2;P2;SDS_P1;SDS_P2;PMS_P1;PMS_P2;Temp;Humidity;BMP_temperature;BMP_pressure;BME280_temperature;BME280_humidity;BME280_pressure;Samples;Min_cycle;Max_cycle;Signal;HPM_P1;HPM_P2
2023/08/03 00:01:01;;;;;;;;;;;;;;;16.89;68.12;96384.91;6126898;29;19931;-70
2023/08/03 00:04:03;;;;;;;;;;;;;;;16.89;68.09;96395.53;6125789;29;19927;-70
2023/08/03 00:07:05;;;;;;;;;;;;;;;16.95;67.53;96391.44;6108961;29;20442;-70
2023/08/03 00:10:06;;;;;;;;;;;;;;;16.96;67.84;96399.28;6109284;29;20010;-70
2023/08/03 00:13:10;;;;;;;;;;;;;;;16.96;68.13;96396.63;6125722;29;19930;-71
2023/08/03 00:16:11;;;;;;;;;;;;;;;16.94;67.38;96393.28;6109439;29;19969;-71
2023/08/03 00:19:12;;;;;;;;;;;;;;;16.93;67.90;96401.38;6126371;29;20304;-69
2023/08/03 00:22:15;;;;;;;;;;;;;;;16.93;67.60;96396.94;6126424;29;19927;-70
2023/08/03 00:25:21;;;;;;;;;;;;;;;16.95;68.06;96405.56;6126644;29;20017;-70
2023/08/03 00:28:23;;;;;;;;;;;;;;;16.96;68.59;96407.25;6126243;29;19934;-70
2023/08/03 00:31:27;;;;;;;;;;;;;;;17.02;69.09;96401.34;6126469;29;20313;-70
2023/08/03 00:34:30;;;;;;;;;;;;;;;17.06;69.20;96408.00;6126582;29;19927;-70
2023/08/03 00:37:33;;;;;;;;;;;;;;;17.10;67.97;96399.72;6126256;29;19950;-71
2023/08/03 00:40:34;;;;;;;;;;;;;;;17.08;67.61;96404.38;6126235;29;19927;-70
2023/08/03 00:43:38;;;;;;;;;;;;;;;17.04;67.91;96399.38;6109590;29;19927;-71
2023/08/03 00:46:44;;;;;;;;;;;;;;;17.04;67.70;96403.81;6117795;29;19926;-70
2023/08/03 00:49:50;;;;;;;;;;;;;;;17.03;68.25;96408.31;6125796;29;19933;-70
2023/08/03 00:53:02;;;;;;;;;;;;;;;17.06;67.88;96409.84;6126229;29;20024;-70
2023/08/03 00:56:08;;;;;;;;;;;;;;;17.04;67.91;96403.81;6125942;29;19927;-71
2023/08/03 00:59:10;;;;;;;;;;;;;;;17.01;67.88;96412.97;6108351;29;19933;-71
2023/08/03 01:02:14;;;;;;;;;;;;;;;17.00;68.23;96408.63;6125770;29;19967;-70
2023/08/03 01:05:18;;;;;;;;;;;;;;;16.99;68.27;96412.28;6125587;29;19926;-71
2023/08/03 01:08:20;;;;;;;;;;;;;;;17.01;67.96;96415.63;6125783;29;19983;-70
2023/08/03 01:11:23;;;;;;;;;;;;;;;17.11;68.60;96417.38;6092901;29;19926;-70
2023/08/03 01:14:27;;;;;;;;;;;;;;;17.22;68.42;96417.16;6124846;29;19926;-71
2023/08/03 01:17:29;;;;;;;;;;;;;;;17.34;67.55;96410.59;6125027;29;19933;-70
2023/08/03 01:20:35;;;;;;;;;;;;;;;17.42;67.30;96408.00;6125455;29;19927;-71
2023/08/03 01:23:39;;;;;;;;;;;;;;;17.51;67.06;96412.41;6108963;29;19926;-70
2023/08/03 01:26:44;;;;;;;;;;;;;;;17.60;66.97;96407.97;6124470;29;19926;-71
2023/08/03 01:29:45;;;;;;;;;;;;;;;17.63;66.85;96420.13;6107893;29;19990;-71
2023/08/03 01:32:48;;;;;;;;;;;;;;;17.67;67.06;96419.69;6124216;29;19927;-71
2023/08/03 01:35:49;;;;;;;;;;;;;;;17.80;65.54;96423.78;6124452;29;19927;-70
2023/08/03 01:39:09;;;;;;;;;;;;;;;17.83;65.59;96416.31;6125108;29;20037;-70
2023/08/03 01:42:09;;;;;;;;;;;;;;;17.84;66.21;96418.00;6124632;29;19933;-71
2023/08/03 01:45:13;;;;;;;;;;;;;;;17.91;66.38;96416.38;6124907;29;19971;-72
2023/08/03 01:48:16;;;;;;;;;;;;;;;18.00;66.49;96413.78;6124693;29;19926;-72
2023/08/03 01:51:19;;;;;;;;;;;;;;;18.07;66.27;96417.50;6124813;29;19926;-72
2023/08/03 01:54:24;;;;;;;;;;;;;;;18.15;65.98;96425.53;6107690;29;19923;-71
2023/08/03 01:57:27;;;;;;;;;;;;;;;18.28;65.10;96420.59;6123990;29;19934;-70
2023/08/03 02:00:30;;;;;;;;;;;;;;;18.33;65.12;96423.63;6124162;29;19930;-70
2023/08/03 02:03:31;;;;;;;;;;;;;;;18.29;65.15;96438.28;6124613;29;19927;-71
2023/08/03 02:06:33;;;;;;;;;;;;;;;18.30;65.74;96433.78;6123926;29;20381;-70
2023/08/03 02:09:35;;;;;;;;;;;;;;;18.34;65.93;96430.66;6123781;29;20304;-71
2023/08/03 02:12:39;;;;;;;;;;;;;;;18.47;65.90;96429.38;6106837;29;20397;-70
2023/08/03 02:15:43;;;;;;;;;;;;;;;18.59;65.37;96430.75;6126158;29;20804;-70
2023/08/03 02:18:44;;;;;;;;;;;;;;;18.72;65.35;96432.97;6128725;29;19933;-70
2023/08/03 02:21:48;;;;;;;;;;;;;;;18.82;65.27;96431.88;6128422;29;20432;-70
2023/08/03 02:24:49;;;;;;;;;;;;;;;18.93;64.80;96433.38;6128869;29;20389;-70
2023/08/03 02:27:52;;;;;;;;;;;;;;;19.06;64.57;96435.59;6129322;29;19927;-69
2023/08/03 02:30:57;;;;;;;;;;;;;;;19.18;63.75;96436.97;6129081;29;19926;-71
2023/08/03 02:34:02;;;;;;;;;;;;;;;19.32;63.42;96440.00;6128921;29;19926;-71
2023/08/03 02:37:06;;;;;;;;;;;;;;;19.43;63.62;96442.34;6129052;29;19927;-71
2023/08/03 02:40:10;;;;;;;;;;;;;;;19.51;63.28;96450.34;6128935;29;19927;-71
2023/08/03 02:43:16;;;;;;;;;;;;;;;19.58;63.22;96451.34;6128975;29;19926;-70
2023/08/03 02:46:20;;;;;;;;;;;;;;;19.64;63.45;96444.50;6128601;29;20312;-71
2023/08/03 02:49:21;;;;;;;;;;;;;;;19.71;62.88;96449.06;6111066;29;19937;-71
2023/08/03 02:52:25;;;;;;;;;;;;;;;19.83;62.76;96448.72;6128404;29;19926;-71
2023/08/03 02:55:28;;;;;;;;;;;;;;;19.90;62.56;96449.69;6128528;29;19931;-70
2023/08/03 02:58:29;;;;;;;;;;;;;;;19.98;62.51;96455.03;6127663;29;19934;-70
2023/08/03 03:01:32;;;;;;;;;;;;;;;20.03;62.45;96444.69;6127802;29;20025;-70
2023/08/03 03:04:36;;;;;;;;;;;;;;;20.09;62.05;96446.69;6128245;29;19927;-71
2023/08/03 03:07:38;;;;;;;;;;;;;;;20.14;61.77;96441.66;6127726;29;20297;-71
2023/08/03 03:10:41;;;;;;;;;;;;;;;20.20;61.92;96442.81;6128067;29;19926;-71
2023/08/03 03:13:44;;;;;;;;;;;;;;;20.32;61.24;96437.97;6128167;29;19979;-70
2023/08/03 03:16:50;;;;;;;;;;;;;;;20.38;61.17;96437.25;6127883;29;20017;-71
2023/08/03 03:19:51;;;;;;;;;;;;;;;20.50;60.75;96441.25;6127392;29;20317;-71
2023/08/03 03:22:52;;;;;;;;;;;;;;;20.60;60.41;96436.56;6127804;29;20061;-71
2023/08/03 03:25:55;;;;;;;;;;;;;;;20.71;60.23;96437.19;6126875;29;20017;-71
2023/08/03 03:28:56;;;;;;;;;;;;;;;20.84;60.02;96440.16;6126173;29;19926;-71
2023/08/03 03:32:00;;;;;;;;;;;;;;;20.94;59.82;96438.09;6127021;29;19955;-70
2023/08/03 03:35:02;;;;;;;;;;;;;;;21.05;59.56;96437.69;6126751;29;19931;-70
2023/08/03 03:38:07;;;;;;;;;;;;;;;21.16;59.33;96435.66;6127744;29;19926;-70
2023/08/03 03:41:10;;;;;;;;;;;;;;;21.25;58.93;96439.94;6127826;29;19927;-70
2023/08/03 03:44:15;;;;;;;;;;;;;;;21.36;58.50;96446.72;6127320;29;19927;-69
2023/08/03 03:47:17;;;;;;;;;;;;;;;21.45;58.30;96446.50;6127837;29;20108;-71
2023/08/03 03:50:21;;;;;;;;;;;;;;;21.57;57.93;96440.75;6110120;29;19927;-71
2023/08/03 03:53:22;;;;;;;;;;;;;;;21.64;57.70;96439.88;6126092;29;19938;-71
2023/08/03 03:56:26;;;;;;;;;;;;;;;21.76;57.40;96442.94;6127045;29;19934;-71
2023/08/03 03:59:31;;;;;;;;;;;;;;;21.87;57.39;96450.56;6127062;29;19923;-71
2023/08/03 04:02:33;;;;;;;;;;;;;;;22.00;56.75;96444.59;6126678;29;19934;-72
2023/08/03 04:05:35;;;;;;;;;;;;;;;22.09;56.57;96445.34;6126525;29;19926;-71
2023/08/03 04:08:38;;;;;;;;;;;;;;;22.15;56.34;96448.13;6126988;29;19927;-71
2023/08/03 04:11:41;;;;;;;;;;;;;;;22.28;56.14;96447.53;6119268;29;19926;-71
2023/08/03 04:14:42;;;;;;;;;;;;;;;22.35;56.06;96445.78;6126073;29;20058;-72
2023/08/03 04:17:46;;;;;;;;;;;;;;;22.52;55.14;96453.66;6126771;29;19927;-71
2023/08/03 04:20:49;;;;;;;;;;;;;;;22.51;55.15;96444.78;6126706;29;19927;-70
2023/08/03 04:23:52;;;;;;;;;;;;;;;22.59;54.99;96455.41;6109742;29;20448;-71
2023/08/03 04:26:59;;;;;;;;;;;;;;;22.74;54.86;96458.09;6126558;29;20396;-71
2023/08/03 04:30:02;;;;;;;;;;;;;;;22.90;54.21;96456.22;6109687;29;20368;-71
2023/08/03 04:33:07;;;;;;;;;;;;;;;23.02;54.28;96444.03;6125921;29;19931;-72
2023/08/03 04:36:11;;;;;;;;;;;;;;;23.16;53.88;96456.59;6126328;29;19927;-72
2023/08/03 04:39:12;;;;;;;;;;;;;;;23.31;53.84;96452.00;6124621;29;19926;-71
2023/08/03 04:42:15;;;;;;;;;;;;;;;23.48;53.33;96449.09;6108286;29;19938;-71
2023/08/03 04:45:19;;;;;;;;;;;;;;;23.58;52.79;96449.63;6125684;29;19926;-71
2023/08/03 04:48:20;;;;;;;;;;;;;;;25.23;50.55;96451.03;6124888;29;20459;-71
2023/08/03 04:51:26;;;;;;;;;;;;;;;29.43;43.96;96451.63;6126132;29;19927;-71
2023/08/03 04:54:29;;;;;;;;;;;;;;;33.83;38.26;96462.88;6108834;29;20304;-72
2023/08/03 04:57:30;;;;;;;;;;;;;;;37.66;33.32;96465.09;6124995;29;19950;-72
2023/08/03 05:00:31;;;;;;;;;;;;;;;40.98;31.20;96477.81;6124079;29;19922;-71
2023/08/03 05:03:33;;;;;;;;;;;;;;;43.36;28.62;96472.91;6125612;29;19954;-72
2023/08/03 05:06:34;;;;;;;;;;;;;;;45.07;25.93;96473.63;6125025;29;20013;-71
2023/08/03 05:09:37;;;;;;;;;;;;;;;46.68;20.86;96468.88;6125289;29;19927;-71
2023/08/03 05:12:41;;;;;;;;;;;;;;;48.19;22.81;96475.47;6124693;29;20393;-72
2023/08/03 05:15:44;;;;;;;;;;;;;;;49.67;21.56;96481.06;6124888;29;20423;-72
2023/08/03 05:18:51;;;;;;;;;;;;;;;50.91;20.21;96487.72;6125314;29;20312;-71
2023/08/03 05:21:53;;;;;;;;;;;;;;;51.57;20.68;96485.69;6107575;29;19934;-73
2023/08/03 05:24:55;;;;;;;;;;;;;;;51.67;17.93;96483.44;6124880;29;19977;-72
2023/08/03 05:28:00;;;;;;;;;;;;;;;51.90;17.64;96497.41;6125741;29;20357;-72
2023/08/03 05:31:05;;;;;;;;;;;;;;;52.20;17.35;96489.03;6124663;29;20401;-72
2023/08/03 05:34:12;;;;;;;;;;;;;;;53.01;17.02;96488.44;6125241;29;20006;-72
2023/08/03 05:37:18;;;;;;;;;;;;;;;54.06;15.41;96500.16;6124625;29;20317;-72
2023/08/03 05:40:21;;;;;;;;;;;;;;;53.98;14.95;96495.63;6124171;29;20333;-72
2023/08/03 05:43:26;;;;;;;;;;;;;;;53.73;13.29;96484.22;6124838;29;20316;-71
2023/08/03 05:46:32;;;;;;;;;;;;;;;54.63;11.82;96485.50;6124597;29;19993;-72
2023/08/03 05:49:36;;;;;;;;;;;;;;;55.55;14.04;96486.91;6123883;29;19926;-71
2023/08/03 05:52:39;;;;;;;;;;;;;;;56.74;13.78;96484.59;6107494;29;19933;-71
2023/08/03 05:55:43;;;;;;;;;;;;;;;57.16;11.23;96481.91;6137285;29;19926;-72
2023/08/03 05:58:46;;;;;;;;;;;;;;;56.43;10.86;96480.69;6129279;29;20025;-72
2023/08/03 06:01:50;;;;;;;;;;;;;;;57.06;12.12;96477.94;6129284;29;19933;-72
2023/08/03 06:04:58;;;;;;;;;;;;;;;58.03;9.81;96472.25;6135043;29;19955;-71
2023/08/03 06:08:11;;;;;;;;;;;;;;;57.76;8.79;96472.94;6122342;29;19907;-71
2023/08/03 06:11:16;;;;;;;;;;;;;;;57.66;11.36;96476.66;6138602;29;19914;-72
2023/08/03 06:14:19;;;;;;;;;;;;;;;58.59;10.76;96481.28;6120867;29;19926;-71
2023/08/03 06:17:29;;;;;;;;;;;;;;;59.62;10.94;96483.00;6138214;29;19985;-71
2023/08/03 06:20:55;;;;;;;;;;;;;;;59.94;10.25;96482.44;6126391;29;19974;-72
2023/08/03 06:34:12;;;;;;;;;;;;;;;59.54;7.11;96449.06;6331448;23;20037;-72
2023/08/03 06:37:15;;;;;;;;;;;;;;;58.45;8.52;96431.28;6201091;28;19910;-72
2023/08/03 06:40:24;;;;;;;;;;;;;;;54.28;12.04;96413.78;6175712;28;20004;-72
2023/08/03 06:43:28;;;;;;;;;;;;;;;55.22;11.21;96402.69;6154321;28;20400;-72
2023/08/03 06:46:31;;;;;;;;;;;;;;;56.73;10.73;96403.81;6171744;28;19926;-71
2023/08/03 06:49:34;;;;;;;;;;;;;;;57.63;9.86;96409.56;6173508;28;20008;-72
2023/08/03 06:52:38;;;;;;;;;;;;;;;58.81;9.59;96418.66;6180808;28;19926;-71
2023/08/03 06:55:48;;;;;;;;;;;;;;;57.81;8.52;96414.25;6197678;28;20195;-72
2023/08/03 06:58:51;;;;;;;;;;;;;;;57.01;8.95;96404.88;6155348;28;19937;-73
2023/08/03 07:01:55;;;;;;;;;;;;;;;57.01;9.26;96400.00;6155974;28;19926;-72
2023/08/03 07:04:57;;;;;;;;;;;;;;;57.35;8.31;96394.47;6176113;28;19932;-72
2023/08/03 07:08:04;;;;;;;;;;;;;;;57.98;8.67;96390.56;6180231;28;19926;-72
2023/08/03 07:11:08;;;;;;;;;;;;;;;59.13;8.69;96389.00;6202973;28;19969;-72
2023/08/03 07:14:12;;;;;;;;;;;;;;;60.58;8.44;96401.53;6205240;28;19955;-71
2023/08/03 07:17:21;;;;;;;;;;;;;;;60.73;7.52;96395.53;6207805;28;19906;-71
2023/08/03 07:20:27;;;;;;;;;;;;;;;60.72;6.97;96391.88;6205646;28;19949;-72
2023/08/03 07:23:33;;;;;;;;;;;;;;;61.02;8.24;96395.69;6208413;28;19902;-72
2023/08/03 07:26:39;;;;;;;;;;;;;;;60.77;8.38;96397.06;6206905;28;19913;-72
2023/08/03 07:29:42;;;;;;;;;;;;;;;59.77;7.17;96376.47;6204336;28;19926;-71
2023/08/03 07:32:51;;;;;;;;;;;;;;;56.50;9.34;96364.81;6184578;28;20392;-72
2023/08/03 07:35:52;;;;;;;;;;;;;;;54.82;9.15;96343.50;6174556;28;19933;-73
2023/08/03 07:38:55;;;;;;;;;;;;;;;54.05;9.52;96338.09;6158302;28;19926;-73
2023/08/03 07:41:58;;;;;;;;;;;;;;;54.42;8.94;96339.00;6174919;28;19986;-72
2023/08/03 07:45:02;;;;;;;;;;;;;;;54.80;9.65;96345.91;6157813;28;19926;-73
2023/08/03 07:48:07;;;;;;;;;;;;;;;56.02;8.66;96349.31;6175161;28;19926;-72
2023/08/03 07:51:15;;;;;;;;;;;;;;;57.18;8.21;96347.38;6175074;28;19926;-73
2023/08/03 07:54:19;;;;;;;;;;;;;;;58.45;7.61;96351.16;6175043;28;19926;-72
2023/08/03 07:57:24;;;;;;;;;;;;;;;59.51;7.44;96353.44;6163094;28;20044;-72
2023/08/03 08:00:32;;;;;;;;;;;;;;;60.48;7.27;96365.66;6203138;28;19973;-73
2023/08/03 08:03:35;;;;;;;;;;;;;;;60.10;7.15;96370.94;6203081;28;19950;-71
2023/08/03 08:06:43;;;;;;;;;;;;;;;54.80;8.67;96345.91;6180064;28;20482;-73
2023/08/03 08:09:52;;;;;;;;;;;;;;;49.82;11.37;96331.97;6174669;28;19926;-72
2023/08/03 08:12:58;;;;;;;;;;;;;;;47.56;12.50;96319.78;6157168;28;19929;-73
2023/08/03 08:16:07;;;;;;;;;;;;;;;50.59;10.93;96329.44;6174031;28;19929;-72
2023/08/03 08:19:11;;;;;;;;;;;;;;;53.92;8.99;96339.63;6174535;28;19922;-72
2023/08/03 08:22:18;;;;;;;;;;;;;;;56.01;8.23;96341.28;6173646;28;19927;-75
2023/08/03 08:25:33;;;;;;;;;;;;;;;58.08;7.59;96346.41;6174305;28;19926;-72
2023/08/03 08:28:39;;;;;;;;;;;;;;;59.78;7.27;96346.84;6174240;28;19935;-72
2023/08/03 08:31:42;;;;;;;;;;;;;;;60.37;7.07;96351.69;6174699;28;19925;-72
2023/08/03 08:34:46;;;;;;;;;;;;;;;58.78;6.85;96345.81;6174179;28;19926;-72
2023/08/03 08:37:51;;;;;;;;;;;;;;;59.26;7.82;96336.03;6173954;28;20013;-73
2023/08/03 08:40:53;;;;;;;;;;;;;;;60.22;7.62;96349.59;6174972;28;20088;-73
2023/08/03 08:43:56;;;;;;;;;;;;;;;60.50;6.70;96337.59;6157181;28;19926;-72
2023/08/03 08:47:00;;;;;;;;;;;;;;;60.79;6.45;96346.25;6173885;28;20025;-72
2023/08/03 08:50:04;;;;;;;;;;;;;;;61.13;6.72;96350.69;6173877;28;20458;-72
2023/08/03 08:53:08;;;;;;;;;;;;;;;61.49;6.91;96344.81;6175196;28;19932;-72
2023/08/03 08:56:13;;;;;;;;;;;;;;;61.98;6.30;96341.06;6179755;28;19989;-73
2023/08/03 08:59:17;;;;;;;;;;;;;;;62.43;6.32;96351.47;6178431;28;19989;-72
2023/08/03 09:02:24;;;;;;;;;;;;;;;62.92;4.73;96356.81;6179425;28;20021;-73
2023/08/03 09:05:31;;;;;;;;;;;;;;;63.06;5.13;96366.19;6176982;28;20032;-72
2023/08/03 09:08:49;;;;;;;;;;;;;;;62.75;5.42;96363.94;6173704;28;20384;-73
2023/08/03 09:11:55;;;;;;;;;;;;;;;61.53;6.02;96356.13;6173392;28;19922;-72
2023/08/03 09:14:58;;;;;;;;;;;;;;;59.21;6.41;96339.41;6172968;28;20548;-73
2023/08/03 09:18:07;;;;;;;;;;;;;;;57.89;6.97;96325.19;6172945;28;19922;-72
2023/08/03 09:21:11;;;;;;;;;;;;;;;57.56;6.86;96319.13;6172159;28;19926;-72
2023/08/03 09:24:18;;;;;;;;;;;;;;;58.27;6.56;96316.56;6172892;28;19918;-71
2023/08/03 09:27:23;;;;;;;;;;;;;;;56.61;6.58;96302.59;6172793;28;19926;-72
2023/08/03 09:30:25;;;;;;;;;;;;;;;54.91;7.57;96289.53;6172487;28;19971;-73
2023/08/03 09:33:28;;;;;;;;;;;;;;;54.48;8.33;96287.50;6172041;28;20450;-73
2023/08/03 09:36:32;;;;;;;;;;;;;;;52.79;9.10;96279.47;6172736;28;19926;-72
2023/08/03 09:39:36;;;;;;;;;;;;;;;52.37;8.96;96272.28;6172571;28;19922;-72
2023/08/03 09:42:39;;;;;;;;;;;;;;;53.26;8.99;96286.22;6172688;28;20424;-73
2023/08/03 09:45:42;;;;;;;;;;;;;;;54.51;7.91;96277.44;6155069;28;20316;-71
2023/08/03 09:48:48;;;;;;;;;;;;;;;54.63;7.77;96277.03;6172659;28;19933;-72
2023/08/03 09:51:52;;;;;;;;;;;;;;;52.83;8.56;96268.25;6172294;28;20035;-72
2023/08/03 09:54:56;;;;;;;;;;;;;;;51.44;9.08;96268.38;6172201;28;19926;-73
2023/08/03 09:58:03;;;;;;;;;;;;;;;52.26;8.88;96257.31;6172315;28;19932;-72
2023/08/03 10:01:09;;;;;;;;;;;;;;;53.23;8.38;96275.78;6172234;28;20024;-72
2023/08/03 10:04:16;;;;;;;;;;;;;;;53.98;7.95;96269.69;6172224;28;19937;-73
2023/08/03 10:07:22;;;;;;;;;;;;;;;54.21;8.23;96264.50;6172096;28;20315;-73
2023/08/03 10:10:27;;;;;;;;;;;;;;;53.14;8.35;96264.06;6172016;28;19951;-72
2023/08/03 10:13:37;;;;;;;;;;;;;;;51.56;9.37;96264.53;6172162;28;19996;-72
2023/08/03 10:16:42;;;;;;;;;;;;;;;52.37;9.18;96260.25;6172213;28;19992;-72
2023/08/03 10:19:45;;;;;;;;;;;;;;;52.92;8.47;96261.09;6154493;28;19949;-72
2023/08/03 10:23:08;;;;;;;;;;;;;;;53.03;8.27;96254.75;6154868;28;19926;-73
2023/08/03 10:26:19;;;;;;;;;;;;;;;52.10;9.19;96259.56;6171943;28;20386;-71
2023/08/03 10:29:51;;;;;;;;;;;;;;;51.46;9.35;96246.38;6172057;28;19933;-72
2023/08/03 10:32:54;;;;;;;;;;;;;;;51.02;9.55;96258.19;6151243;28;19925;-72
2023/08/03 10:35:58;;;;;;;;;;;;;;;50.94;9.66;96250.84;6172218;28;20029;-72
2023/08/03 10:39:04;;;;;;;;;;;;;;;50.00;10.09;96253.22;6176400;28;20020;-72
2023/08/03 10:42:34;;;;;;;;;;;;;;;48.45;10.93;96254.53;6176431;28;19949;-72
2023/08/03 10:45:37;;;;;;;;;;;;;;;48.68;10.61;96249.13;6172625;28;19925;-71
2023/08/03 10:48:41;;;;;;;;;;;;;;;49.72;10.11;96254.28;6176471;28;19926;-72
2023/08/03 10:51:45;;;;;;;;;;;;;;;50.14;9.87;96249.88;6176209;28;20017;-72
2023/08/03 10:54:49;;;;;;;;;;;;;;;49.28;10.61;96248.94;6176093;28;20370;-72
2023/08/03 10:57:54;;;;;;;;;;;;;;;47.32;11.43;96244.63;6176187;28;19926;-72
2023/08/03 11:00:57;;;;;;;;;;;;;;;45.90;12.42;96257.06;6176250;28;19933;-72
2023/08/03 11:04:02;;;;;;;;;;;;;;;46.30;12.09;96256.47;6175875;28;19937;-73
2023/08/03 11:07:07;;;;;;;;;;;;;;;46.62;11.95;96265.06;6175954;28;20487;-71
2023/08/03 11:10:10;;;;;;;;;;;;;;;47.09;11.71;96266.63;6158736;28;19926;-70
2023/08/03 11:13:15;;;;;;;;;;;;;;;46.22;12.16;96256.56;6175675;28;20015;-71
2023/08/03 11:16:20;;;;;;;;;;;;;;;45.23;13.06;96258.94;6175689;28;20017;-72
2023/08/03 11:19:27;;;;;;;;;;;;;;;45.43;12.86;96253.69;6175599;28;19926;-72
2023/08/03 11:22:31;;;;;;;;;;;;;;;46.60;12.29;96259.06;6175544;28;19933;-72
2023/08/03 11:25:37;;;;;;;;;;;;;;;46.74;12.01;96255.94;6175505;28;19955;-72
2023/08/03 11:28:42;;;;;;;;;;;;;;;46.36;12.43;96255.09;6175468;28;19933;-72
2023/08/03 11:31:43;;;;;;;;;;;;;;;45.91;12.41;96263.44;6174171;28;19926;-72
2023/08/03 11:34:44;;;;;;;;;;;;;;;45.92;12.64;96260.34;6174670;28;19926;-72
2023/08/03 11:37:48;;;;;;;;;;;;;;;46.60;12.14;96264.63;6174822;28;19933;-72
2023/08/03 11:40:50;;;;;;;;;;;;;;;47.18;12.32;96275.63;6174087;28;19981;-72
2023/08/03 11:43:56;;;;;;;;;;;;;;;46.70;12.77;96278.09;6174768;28;19926;-72
2023/08/03 11:47:03;;;;;;;;;;;;;;;45.90;13.55;96272.94;6174674;28;19926;-72
2023/08/03 11:50:08;;;;;;;;;;;;;;;44.71;14.61;96273.09;6156281;28;20440;-74
2023/08/03 11:53:23;;;;;;;;;;;;;;;42.30;16.36;96277.09;6174913;28;19926;-72
2023/08/03 11:56:27;;;;;;;;;;;;;;;39.76;18.73;96281.47;6174742;28;19933;-72
2023/08/03 11:59:29;;;;;;;;;;;;;;;37.63;20.35;96279.00;6173315;28;19933;-72
2023/08/03 12:02:38;;;;;;;;;;;;;;;36.15;22.15;96278.59;6174744;28;19933;-73
2023/08/03 12:05:46;;;;;;;;;;;;;;;35.07;22.85;96268.66;6157254;28;19926;-72
2023/08/03 12:08:50;;;;;;;;;;;;;;;34.13;24.04;96264.94;6174821;28;20168;-72
2023/08/03 12:12:11;;;;;;;;;;;;;;;33.43;24.46;96264.97;6174652;28;20016;-72
2023/08/03 12:15:15;;;;;;;;;;;;;;;33.08;24.96;96265.44;6156524;28;19969;-73
2023/08/03 12:18:16;;;;;;;;;;;;;;;32.95;25.18;96272.09;6173549;28;20840;-72
2023/08/03 12:21:20;;;;;;;;;;;;;;;32.97;25.16;96280.00;6174238;28;19933;-73
2023/08/03 12:24:25;;;;;;;;;;;;;;;32.87;25.04;96276.09;6174160;28;19933;-72
2023/08/03 12:27:28;;;;;;;;;;;;;;;32.81;24.95;96284.44;6173262;28;19926;-74
2023/08/03 12:30:32;;;;;;;;;;;;;;;32.69;25.60;96295.47;6173072;28;19993;-74
2023/08/03 12:33:38;;;;;;;;;;;;;;;32.38;26.11;96294.25;6173540;28;19926;-74
2023/08/03 12:36:41;;;;;;;;;;;;;;;32.15;26.54;96292.56;6173761;28;20033;-74
2023/08/03 12:39:43;;;;;;;;;;;;;;;31.77;26.64;96305.84;6172678;28;19933;-73
2023/08/03 12:42:47;;;;;;;;;;;;;;;31.41;27.19;96307.16;6173330;28;19922;-73
2023/08/03 12:45:53;;;;;;;;;;;;;;;31.19;27.74;96312.44;6156776;28;20359;-73
2023/08/03 12:48:58;;;;;;;;;;;;;;;30.99;27.27;96322.94;6173535;28;19922;-73
2023/08/03 12:52:01;;;;;;;;;;;;;;;30.80;28.13;96336.72;6172001;28;19937;-73
2023/08/03 12:55:02;;;;;;;;;;;;;;;29.91;30.82;96344.97;6172410;28;19926;-73
2023/08/03 12:58:08;;;;;;;;;;;;;;;28.56;33.35;96351.66;6173144;28;19930;-72
2023/08/03 13:01:09;;;;;;;;;;;;;;;27.16;38.84;96372.72;6172191;28;19941;-72
2023/08/03 13:04:12;;;;;;;;;;;;;;;25.70;44.75;96395.38;6172440;28;19926;-71
2023/08/03 13:07:19;;;;;;;;;;;;;;;24.36;49.70;96398.59;6172997;28;19926;-71
2023/08/03 13:10:22;;;;;;;;;;;;;;;23.38;52.42;96413.66;6172765;28;19933;-70
2023/08/03 13:13:23;;;;;;;;;;;;;;;22.81;55.51;96405.34;6172782;28;19926;-71
2023/08/03 13:16:26;;;;;;;;;;;;;;;22.53;59.16;96397.19;6172803;28;19930;-71
2023/08/03 13:19:30;;;;;;;;;;;;;;;22.29;60.81;96394.75;6173141;28;19926;-71
2023/08/03 13:22:33;;;;;;;;;;;;;;;21.79;61.82;96394.38;6172433;28;19932;-71
2023/08/03 13:25:34;;;;;;;;;;;;;;;21.89;62.55;96384.25;6172531;28;19956;-71
2023/08/03 13:28:35;;;;;;;;;;;;;;;21.74;62.36;96376.19;6171781;28;19927;-71
2023/08/03 13:31:40;;;;;;;;;;;;;;;21.85;62.09;96376.75;6172161;28;19926;-70
2023/08/03 13:34:43;;;;;;;;;;;;;;;22.08;62.56;96374.00;6172027;28;19930;-70
2023/08/03 13:37:47;;;;;;;;;;;;;;;21.96;62.85;96362.91;6172093;28;20054;-70
2023/08/03 13:40:51;;;;;;;;;;;;;;;22.27;62.00;96354.72;6172165;28;19933;-70
2023/08/03 13:43:54;;;;;;;;;;;;;;;22.54;63.84;96344.38;6139085;28;20277;-71
2023/08/03 13:47:02;;;;;;;;;;;;;;;22.62;61.35;96349.63;6154614;28;19977;-70
2023/08/03 13:50:06;;;;;;;;;;;;;;;23.40;60.40;96344.50;6172032;28;20417;-70
2023/08/03 13:53:08;;;;;;;;;;;;;;;24.10;59.00;96335.56;6171446;28;19926;-69
2023/08/03 13:56:09;;;;;;;;;;;;;;;24.28;57.31;96331.53;6154416;28;19926;-71
2023/08/03 13:59:12;;;;;;;;;;;;;;;24.20;58.04;96329.81;6172195;28;20455;-71
2023/08/03 14:02:15;;;;;;;;;;;;;;;24.44;57.94;96336.59;6172106;28;20299;-72
2023/08/03 14:05:19;;;;;;;;;;;;;;;24.75;59.17;96327.22;6171901;28;19926;-72
2023/08/03 14:08:20;;;;;;;;;;;;;;;25.07;59.32;96321.09;6171850;28;20403;-73
2023/08/03 14:11:26;;;;;;;;;;;;;;;25.50;57.97;96318.06;6171158;28;19925;-72
2023/08/03 14:14:29;;;;;;;;;;;;;;;25.73;57.98;96330.28;6171963;28;20308;-72
2023/08/03 14:17:36;;;;;;;;;;;;;;;25.85;57.41;96339.44;6154980;28;19926;-73
2023/08/03 14:20:37;;;;;;;;;;;;;;;25.84;57.05;96332.38;6171407;28;19933;-72
2023/08/03 14:23:38;;;;;;;;;;;;;;;25.82;58.73;96328.19;6171376;28;20285;-71
2023/08/03 14:26:39;;;;;;;;;;;;;;;25.68;57.07;96338.19;6153957;28;19933;-72
2023/08/03 14:29:42;;;;;;;;;;;;;;;25.57;58.10;96341.50;6171764;28;20002;-71
2023/08/03 14:32:48;;;;;;;;;;;;;;;25.46;58.19;96335.69;6171310;28;19926;-73
2023/08/03 14:35:49;;;;;;;;;;;;;;;25.31;57.58;96343.13;6154110;28;19933;-73
2023/08/03 14:38:54;;;;;;;;;;;;;;;25.26;57.88;96345.59;6170992;28;19984;-73
2023/08/03 14:41:58;;;;;;;;;;;;;;;25.16;57.62;96345.97;6154946;28;19926;-72
2023/08/03 14:44:59;;;;;;;;;;;;;;;25.13;57.78;96350.91;6171694;28;19936;-72
2023/08/03 14:48:01;;;;;;;;;;;;;;;25.05;56.31;96355.47;6171037;28;19926;-72
2023/08/03 14:51:06;;;;;;;;;;;;;;;25.01;57.46;96359.59;6171458;28;19939;-72
2023/08/03 14:54:13;;;;;;;;;;;;;;;25.01;56.87;96362.28;6171466;28;19973;-71
2023/08/03 14:57:14;;;;;;;;;;;;;;;24.89;57.13;96365.78;6170828;28;19926;-72
2023/08/03 15:00:19;;;;;;;;;;;;;;;24.79;56.88;96374.19;6171315;28;19925;-72
2023/08/03 15:03:20;;;;;;;;;;;;;;;24.65;57.65;96371.44;6153872;28;20289;-74
2023/08/03 15:06:22;;;;;;;;;;;;;;;24.53;58.41;96373.06;6170157;28;19926;-73
2023/08/03 15:09:23;;;;;;;;;;;;;;;24.33;58.70;96362.16;6170578;28;20130;-73
2023/08/03 15:12:26;;;;;;;;;;;;;;;24.17;58.81;96363.28;6171511;28;20338;-71
2023/08/03 15:15:30;;;;;;;;;;;;;;;24.03;59.31;96366.09;6171255;28;19926;-72
2023/08/03 15:18:31;;;;;;;;;;;;;;;23.95;58.77;96369.78;6170318;28;19933;-72
2023/08/03 15:21:35;;;;;;;;;;;;;;;23.86;59.36;96365.56;6171207;28;19933;-72
2023/08/03 15:24:38;;;;;;;;;;;;;;;23.92;59.24;96370.16;6175584;28;19926;-71
2023/08/03 15:27:39;;;;;;;;;;;;;;;23.91;58.73;96368.50;6174556;28;19932;-72
2023/08/03 15:30:49;;;;;;;;;;;;;;;23.78;58.30;96388.06;6158215;28;20430;-72
2023/08/03 15:33:50;;;;;;;;;;;;;;;23.62;58.68;96380.22;6149446;29;20401;-72
2023/08/03 15:36:51;;;;;;;;;;;;;;;23.54;58.43;96386.56;6151204;28;19971;-71
2023/08/03 15:39:55;;;;;;;;;;;;;;;23.39;59.51;96378.56;6151325;28;19934;-72
2023/08/03 15:42:55;;;;;;;;;;;;;;;23.33;59.34;96379.34;6149956;29;19949;-72
2023/08/03 15:46:06;;;;;;;;;;;;;;;23.29;60.35;96378.88;6151516;28;19930;-72
2023/08/03 15:49:10;;;;;;;;;;;;;;;23.24;59.98;96380.47;6151347;29;20463;-72
2023/08/03 15:52:11;;;;;;;;;;;;;;;23.18;59.97;96382.06;6150555;28;19926;-72
2023/08/03 15:55:14;;;;;;;;;;;;;;;23.17;59.73;96384.94;6150865;28;20313;-72
2023/08/03 15:58:15;;;;;;;;;;;;;;;23.19;58.75;96386.44;6150662;28;19930;-73
2023/08/03 16:01:16;;;;;;;;;;;;;;;23.17;59.65;96383.09;6150509;28;19997;-74
2023/08/03 16:04:20;;;;;;;;;;;;;;;23.16;59.32;96392.19;6149469;29;19926;-73
2023/08/03 16:07:22;;;;;;;;;;;;;;;23.12;59.75;96390.06;6150830;29;19930;-72
2023/08/03 16:10:23;;;;;;;;;;;;;;;23.06;60.27;96391.63;6150329;28;19926;-73
2023/08/03 16:13:29;;;;;;;;;;;;;;;23.04;60.92;96391.00;6150756;28;19926;-73